Time;durP1;ratioP1;P1;durP2;ratioP2;P2;SDS_P1;SDS_P2;PMS_P1;PMS_P2;Temp;Humidity;BMP_temperature;BMP_pressure;BME280_temperature;BME280_humidity;BME280_pressure;Samples;Min_cycle;Max_cycle;Signal;HPM_P1;HPM_P2
2022/07/10 00:00:37;;;;;;;8.32;4.43;;;13.30;99.90;;;;;;5074267;28;20436;-54
2022/07/10 00:03:04;;;;;;;7.57;4.50;;;13.30;99.90;;;;;;5074313;28;20599;-54
2022/07/10 00:05:30;;;;;;;6.30;3.83;;;13.30;99.90;;;;;;5074538;28;20024;-54
2022/07/10 00:07:56;;;;;;;7.47;4.55;;;13.20;99.90;;;;;;5074348;28;20024;-54
2022/07/10 00:10:23;;;;;;;10.30;4.72;;;13.30;99.90;;;;;;5074280;28;20036;-54
2022/07/10 00:12:50;;;;;;;15.13;6.43;;;13.30;99.90;;;;;;5074394;28;20168;-54
2022/07/10 00:15:17;;;;;;;10.70;5.97;;;13.30;99.90;;;;;;5074364;28;20029;-54
2022/07/10 00:17:44;;;;;;;11.73;5.82;;;13.30;99.90;;;;;;5074207;28;20390;-54
2022/07/10 00:20:12;;;;;;;10.45;5.45;;;13.40;99.90;;;;;;5074253;28;20028;-54
2022/07/10 00:22:39;;;;;;;12.48;5.40;;;13.40;99.90;;;;;;5074094;28;20539;-54
2022/07/10 00:25:07;;;;;;;8.82;5.63;;;13.40;99.90;;;;;;5074208;28;20032;-54
2022/07/10 00:27:33;;;;;;;10.65;5.28;;;13.40;99.90;;;;;;5056157;28;20025;-54
2022/07/10 00:29:59;;;;;;;12.95;5.57;;;13.30;99.90;;;;;;5055940;28;20063;-54
2022/07/10 00:32:25;;;;;;;8.43;5.35;;;13.20;99.90;;;;;;5074111;28;20032;-54
2022/07/10 00:34:51;;;;;;;8.23;4.45;;;13.10;99.90;;;;;;5076367;28;20027;-54
2022/07/10 00:37:18;;;;;;;7.50;4.05;;;13.00;99.90;;;;;;5078008;28;20086;-54
2022/07/10 00:39:44;;;;;;;7.95;3.88;;;13.00;99.90;;;;;;5078261;28;20127;-54
2022/07/10 00:42:13;;;;;;;9.05;4.40;;;13.00;99.90;;;;;;5078169;28;20052;-54
2022/07/10 00:44:40;;;;;;;7.38;4.68;;;12.90;99.90;;;;;;5078039;28;20116;-54
2022/07/10 00:47:07;;;;;;;7.43;4.75;;;12.90;99.90;;;;;;5078050;28;20104;-54
2022/07/10 00:49:34;;;;;;;8.23;4.70;;;12.80;99.90;;;;;;5077940;28;20127;-54
2022/07/10 00:52:02;;;;;;;9.82;5.82;;;12.80;99.90;;;;;;5077921;28;20043;-54
2022/07/10 00:54:30;;;;;;;14.88;6.72;;;12.80;99.90;;;;;;5077733;28;20040;-54
2022/07/10 00:56:56;;;;;;;10.60;4.88;;;12.80;99.90;;;;;;5077964;28;20063;-54
2022/07/10 00:59:23;;;;;;;9.02;5.45;;;12.70;99.90;;;;;;5077612;28;20020;-54
2022/07/10 01:01:50;;;;;;;8.30;4.72;;;12.70;99.90;;;;;;5077856;28;20100;-54
2022/07/10 01:04:17;;;;;;;12.00;5.53;;;12.80;99.90;;;;;;5077656;28;20131;-54
2022/07/10 01:06:43;;;;;;;8.57;5.13;;;12.70;99.90;;;;;;5077459;28;20033;-54
2022/07/10 01:09:09;;;;;;;10.95;5.43;;;12.70;99.90;;;;;;5077625;28;20047;-54
2022/07/10 01:11:37;;;;;;;7.00;4.60;;;12.70;99.90;;;;;;5077631;28;20031;-54
2022/07/10 01:14:04;;;;;;;8.55;4.95;;;12.60;99.90;;;;;;5077635;28;20048;-54
2022/07/10 01:16:30;;;;;;;7.70;4.45;;;12.60;99.90;;;;;;5077895;28;20024;-54
2022/07/10 01:18:57;;;;;;;7.15;4.38;;;12.60;99.90;;;;;;5077104;28;20049;-54
2022/07/10 01:21:27;;;;;;;5.72;4.10;;;12.50;99.90;;;;;;5077229;28;20501;-54
2022/07/10 01:23:53;;;;;;;5.95;3.90;;;12.50;99.90;;;;;;5077398;28;20520;-54
2022/07/10 01:26:21;;;;;;;7.82;4.15;;;12.50;99.90;;;;;;5077279;28;20030;-54
2022/07/10 01:28:54;;;;;;;9.05;4.05;;;12.50;99.90;;;;;;5077237;28;20025;-54
2022/07/10 01:31:26;;;;;;;6.30;3.85;;;12.40;99.90;;;;;;5077104;28;20112;-54
2022/07/10 01:33:56;;;;;;;9.13;4.53;;;12.50;99.90;;;;;;5077147;28;20055;-54
2022/07/10 01:36:22;;;;;;;7.85;4.50;;;12.60;99.90;;;;;;5077138;28;20025;-54
2022/07/10 01:38:51;;;;;;;10.57;5.43;;;12.60;99.90;;;;;;5077102;28;20029;-54
2022/07/10 01:41:17;;;;;;;8.57;4.80;;;12.70;99.90;;;;;;5076951;28;20100;-54
2022/07/10 01:43:44;;;;;;;8.63;4.90;;;12.70;99.90;;;;;;5076894;28;20060;-54
2022/07/10 01:46:11;;;;;;;8.32;4.68;;;12.80;99.90;;;;;;5075908;28;20059;-54
2022/07/10 01:48:41;;;;;;;7.72;3.95;;;12.80;99.90;;;;;;5076786;28;20028;-54
2022/07/10 01:51:08;;;;;;;5.43;4.22;;;12.80;99.90;;;;;;5076815;28;20336;-54
2022/07/10 01:53:35;;;;;;;9.55;4.20;;;12.80;99.90;;;;;;5076748;28;20040;-54
2022/07/10 01:56:04;;;;;;;10.25;4.15;;;12.90;99.90;;;;;;5075418;28;20028;-54
2022/07/10 01:58:30;;;;;;;7.13;3.97;;;12.90;99.90;;;;;;5076700;28;20503;-54
2022/07/10 02:00:57;;;;;;;6.40;3.90;;;12.90;99.90;;;;;;5076579;28;20075;-54
2022/07/10 02:06:07;;;;;;;6.53;4.00;;;13.00;99.90;;;;;;5076603;28;20020;-54
2022/07/10 02:08:33;;;;;;;6.65;4.00;;;13.00;99.90;;;;;;5076696;28;20111;-54
2022/07/10 02:10:59;;;;;;;6.75;3.60;;;13.10;99.90;;;;;;5076397;28;20068;-54
2022/07/10 02:13:27;;;;;;;8.43;3.78;;;13.10;99.90;;;;;;5076307;28;20035;-54
2022/07/10 02:15:54;;;;;;;6.85;3.47;;;13.10;99.90;;;;;;5076546;28;20098;-54
2022/07/10 02:18:20;;;;;;;7.25;3.63;;;13.10;99.90;;;;;;5101593;28;20059;-54
2022/07/10 02:20:46;;;;;;;5.25;3.92;;;13.10;99.90;;;;;;5095340;28;20033;-54
2022/07/10 02:23:13;;;;;;;10.55;4.40;;;13.20;99.90;;;;;;5096535;28;20031;-54
2022/07/10 02:25:39;;;;;;;9.13;3.30;;;13.20;99.90;;;;;;5096437;28;20055;-54
2022/07/10 02:28:05;;;;;;;6.32;3.60;;;13.20;99.90;;;;;;5096429;28;20059;-54
2022/07/10 02:30:31;;;;;;;6.03;3.55;;;13.20;99.90;;;;;;5096367;28;20028;-54
2022/07/10 02:32:57;;;;;;;10.70;3.72;;;13.20;99.90;;;;;;5096208;28;20036;-54
2022/07/10 02:35:23;;;;;;;6.97;3.97;;;13.10;99.90;;;;;;5096294;28;20080;-54
2022/07/10 02:37:49;;;;;;;9.18;3.75;;;13.10;99.90;;;;;;5096071;28;20032;-54
2022/07/10 02:40:15;;;;;;;6.07;3.80;;;13.00;99.90;;;;;;5096018;28;20465;-54
2022/07/10 02:42:41;;;;;;;6.97;3.50;;;13.00;99.90;;;;;;5096096;28;20485;-54
2022/07/10 02:45:08;;;;;;;11.15;3.95;;;13.10;99.90;;;;;;5096028;28;20036;-54
2022/07/10 02:47:34;;;;;;;7.93;3.15;;;13.10;99.90;;;;;;5096078;28;20023;-54
2022/07/10 02:50:00;;;;;;;9.43;3.50;;;13.00;99.90;;;;;;5096054;28;20028;-54
2022/07/10 02:52:26;;;;;;;6.57;3.40;;;13.00;99.90;;;;;;5095884;28;20039;-54
2022/07/10 02:54:52;;;;;;;4.55;2.88;;;13.00;99.90;;;;;;5095778;28;20032;-54
2022/07/10 02:57:18;;;;;;;3.47;3.17;;;12.90;99.90;;;;;;5095701;28;20371;-54
2022/07/10 02:59:44;;;;;;;5.93;3.05;;;12.80;99.90;;;;;;5095820;28;20107;-54
2022/07/10 03:02:10;;;;;;;6.25;3.83;;;12.80;99.90;;;;;;5095650;28;20048;-54
2022/07/10 03:04:37;;;;;;;10.60;3.17;;;12.70;99.90;;;;;;5096063;28;20020;-54
2022/07/10 03:07:03;;;;;;;3.90;2.88;;;12.70;99.90;;;;;;5095510;28;20468;-54
2022/07/10 03:09:29;;;;;;;8.65;3.35;;;12.70;99.90;;;;;;5095591;28;20024;-54
2022/07/10 03:11:55;;;;;;;5.28;3.03;;;12.70;99.90;;;;;;5095801;28;20390;-54
2022/07/10 03:14:21;;;;;;;6.70;3.25;;;12.70;99.90;;;;;;5095489;28;20046;-54
2022/07/10 03:16:47;;;;;;;7.07;3.28;;;12.60;99.90;;;;;;5095567;28;20122;-54
2022/07/10 03:19:13;;;;;;;4.82;3.10;;;12.50;99.90;;;;;;5077858;28;20057;-54
2022/07/10 03:21:39;;;;;;;5.50;3.35;;;12.40;99.90;;;;;;5074928;28;20402;-54
2022/07/10 03:24:05;;;;;;;5.07;3.80;;;12.50;99.90;;;;;;5075139;28;20036;-54
2022/07/10 03:26:31;;;;;;;6.57;3.38;;;12.40;99.90;;;;;;5075021;28;20111;-54
2022/07/10 03:28:57;;;;;;;8.73;3.85;;;12.50;99.90;;;;;;5075212;28;20063;-54
2022/07/10 03:31:23;;;;;;;5.68;3.65;;;12.70;99.90;;;;;;5074822;28;20083;-54
2022/07/10 03:33:49;;;;;;;6.05;3.60;;;12.70;99.90;;;;;;5074924;28;20029;-54
2022/07/10 03:36:15;;;;;;;9.30;3.40;;;12.70;99.90;;;;;;5074771;28;20036;-54
2022/07/10 03:38:41;;;;;;;6.30;3.08;;;12.80;99.90;;;;;;5074715;28;20031;-54
2022/07/10 03:41:07;;;;;;;5.72;3.00;;;12.80;99.90;;;;;;5074749;28;20035;-54
2022/07/10 03:43:33;;;;;;;8.70;3.45;;;12.80;99.90;;;;;;5074743;28;20171;-54
2022/07/10 03:45:59;;;;;;;6.22;3.42;;;12.70;99.90;;;;;;5074662;28;20083;-54
2022/07/10 03:48:26;;;;;;;5.57;3.92;;;12.60;99.90;;;;;;5074702;28;20123;-54
2022/07/10 03:50:52;;;;;;;4.20;3.47;;;12.50;99.90;;;;;;5074686;28;20478;-54
2022/07/10 03:53:19;;;;;;;11.13;3.40;;;12.60;99.90;;;;;;5074895;28;20036;-54
2022/07/10 03:55:45;;;;;;;6.80;3.35;;;12.60;99.90;;;;;;5074635;28;20478;-54
2022/07/10 03:58:11;;;;;;;7.93;3.60;;;12.60;99.90;;;;;;5074537;28;20111;-54
2022/07/10 04:00:38;;;;;;;7.18;3.67;;;12.60;99.90;;;;;;5074491;28;20063;-54
2022/07/10 04:03:05;;;;;;;9.70;4.05;;;12.80;99.90;;;;;;5074612;28;20496;-54
2022/07/10 04:05:32;;;;;;;9.55;4.20;;;13.00;99.90;;;;;;5074540;28;20021;-54
2022/07/10 04:07:59;;;;;;;7.35;3.60;;;13.00;99.90;;;;;;5074538;28;20122;-54
2022/07/10 04:10:26;;;;;;;7.38;3.60;;;13.10;99.90;;;;;;5073973;28;20490;-54
2022/07/10 04:12:53;;;;;;;7.72;3.70;;;13.10;99.90;;;;;;5056321;28;20381;-54
2022/07/10 04:15:19;;;;;;;6.18;3.88;;;13.10;99.90;;;;;;5074405;28;20033;-54
2022/07/10 04:17:46;;;;;;;7.72;3.88;;;13.10;99.90;;;;;;5074047;28;20567;-54
2022/07/10 04:20:13;;;;;;;5.97;3.65;;;13.30;99.90;;;;;;5074130;28;20032;-54
2022/07/10 04:22:39;;;;;;;5.30;3.45;;;13.40;99.90;;;;;;5074366;28;20037;-54
2022/07/10 04:25:05;;;;;;;9.55;4.20;;;13.40;99.90;;;;;;5074345;28;20021;-54
2022/07/10 04:27:31;;;;;;;5.32;3.78;;;13.50;99.90;;;;;;5074434;28;20084;-54
2022/07/10 04:29:58;;;;;;;5.57;3.60;;;13.60;99.90;;;;;;5074508;28;20040;-54
2022/07/10 04:32:24;;;;;;;6.30;3.60;;;13.70;99.90;;;;;;5074172;28;20048;-54
2022/07/10 04:34:50;;;;;;;7.60;3.90;;;13.70;99.90;;;;;;5074219;28;20530;-54
2022/07/10 04:37:16;;;;;;;9.32;5.00;;;13.80;99.90;;;;;;5074233;28;20060;-54
2022/07/10 04:39:43;;;;;;;7.07;3.38;;;13.90;99.90;;;;;;5074079;28;20036;-54
2022/07/10 04:42:09;;;;;;;8.35;4.55;;;13.80;99.90;;;;;;5074133;28;20099;-54
2022/07/10 04:44:36;;;;;;;10.52;4.47;;;13.80;99.90;;;;;;5074174;28;20470;-54
2022/07/10 04:47:02;;;;;;;9.00;4.20;;;13.80;99.90;;;;;;5073939;28;20021;-54
2022/07/10 04:49:28;;;;;;;8.00;4.22;;;14.00;99.90;;;;;;5074077;28;20028;-54
2022/07/10 04:51:56;;;;;;;8.68;4.28;;;14.10;99.90;;;;;;5073992;28;20047;-54
2022/07/10 04:54:22;;;;;;;7.95;4.28;;;14.30;99.90;;;;;;5073846;28;20067;-54
2022/07/10 04:56:49;;;;;;;11.23;5.30;;;14.50;99.90;;;;;;5073997;28;20031;-54
2022/07/10 04:59:15;;;;;;;10.55;4.38;;;14.50;99.90;;;;;;5073951;28;20037;-54
2022/07/10 05:01:41;;;;;;;14.05;4.93;;;14.50;99.90;;;;;;5073828;28;20096;-53
2022/07/10 05:04:08;;;;;;;8.45;4.30;;;14.60;99.90;;;;;;5073953;28;20035;-54
2022/07/10 05:06:34;;;;;;;10.18;4.53;;;14.80;99.90;;;;;;5073999;28;20096;-54
2022/07/10 05:09:01;;;;;;;9.07;4.90;;;14.90;99.90;;;;;;5073839;28;20027;-54
2022/07/10 05:11:27;;;;;;;11.15;5.03;;;15.10;99.90;;;;;;5073707;28;20035;-54
2022/07/10 05:13:53;;;;;;;10.50;5.38;;;15.30;99.90;;;;;;5073762;28;20032;-54
2022/07/10 05:16:19;;;;;;;10.45;5.30;;;15.40;99.90;;;;;;5073547;28;20441;-54
2022/07/10 05:18:45;;;;;;;9.63;5.80;;;15.50;99.90;;;;;;5055706;28;20054;-54
2022/07/10 05:21:11;;;;;;;13.90;6.65;;;15.50;99.90;;;;;;5075983;28;20056;-54
2022/07/10 05:23:38;;;;;;;12.50;6.53;;;15.70;99.90;;;;;;5077425;28;20048;-54
2022/07/10 05:26:05;;;;;;;15.93;7.22;;;15.80;99.90;;;;;;5077256;28;20056;-54
2022/07/10 05:28:31;;;;;;;17.13;8.15;;;15.90;99.90;;;;;;5077265;28;20078;-54
2022/07/10 05:30:57;;;;;;;14.15;7.85;;;16.00;99.90;;;;;;5077152;28;20115;-54
2022/07/10 05:33:23;;;;;;;17.27;8.65;;;16.00;99.90;;;;;;5077193;28;20025;-54
2022/07/10 05:35:49;;;;;;;20.65;9.63;;;16.10;99.90;;;;;;5077253;28;20033;-54
2022/07/10 05:38:17;;;;;;;17.13;9.18;;;16.20;99.90;;;;;;5076928;28;20371;-54
2022/07/10 05:40:43;;;;;;;23.25;9.85;;;16.30;99.90;;;;;;5077109;28;20035;-54
2022/07/10 05:43:10;;;;;;;20.35;9.70;;;16.50;99.90;;;;;;5077014;28;20410;-54
2022/07/10 05:45:36;;;;;;;21.23;10.45;;;16.60;99.90;;;;;;5076899;28;20016;-54
2022/07/10 05:48:03;;;;;;;24.00;11.40;;;16.70;99.90;;;;;;5077182;28;20028;-54
2022/07/10 05:50:30;;;;;;;25.52;11.70;;;16.80;99.90;;;;;;5076908;28;20346;-54
2022/07/10 05:52:56;;;;;;;26.38;12.50;;;16.80;99.90;;;;;;5076819;28;20028;-54
2022/07/10 05:55:22;;;;;;;27.75;13.38;;;16.90;99.90;;;;;;5076785;28;20108;-54
2022/07/10 05:57:48;;;;;;;32.42;13.45;;;16.80;99.90;;;;;;5076793;28;20028;-54
2022/07/10 06:00:14;;;;;;;27.15;12.73;;;17.00;99.90;;;;;;5076637;28;20123;-54
2022/07/10 06:02:40;;;;;;;29.73;13.75;;;17.20;99.90;;;;;;5076639;28;20031;-54
2022/07/10 06:05:07;;;;;;;26.85;13.52;;;17.30;99.90;;;;;;5076573;28;20029;-54
2022/07/10 06:07:34;;;;;;;30.35;13.48;;;17.50;99.90;;;;;;5076580;28;20016;-54
2022/07/10 06:10:00;;;;;;;31.65;11.73;;;17.70;99.90;;;;;;5076419;28;20032;-54
2022/07/10 06:12:26;;;;;;;31.10;13.20;;;17.80;99.90;;;;;;5076436;28;20028;-54
2022/07/10 06:14:52;;;;;;;26.15;10.73;;;17.90;99.90;;;;;;5076324;28;20392;-54
2022/07/10 06:17:18;;;;;;;22.10;10.98;;;18.10;99.90;;;;;;5076428;28;20036;-54
2022/07/10 06:19:44;;;;;;;25.30;11.48;;;18.20;99.90;;;;;;5076204;28;20247;-54
2022/07/10 06:24:54;;;;;;;17.13;8.77;;;18.30;99.90;;;;;;5076458;28;20032;-54
2022/07/10 06:27:20;;;;;;;15.90;9.75;;;18.40;99.90;;;;;;5076085;28;20108;-54
2022/07/10 06:29:46;;;;;;;16.30;9.13;;;18.60;99.90;;;;;;5076249;28;20024;-54
2022/07/10 06:32:12;;;;;;;17.48;8.82;;;18.80;99.90;;;;;;5075590;28;20032;-54
2022/07/10 06:34:38;;;;;;;19.73;9.23;;;18.90;99.90;;;;;;5091467;28;20539;-54
2022/07/10 06:37:04;;;;;;;18.80;8.02;;;19.20;99.90;;;;;;5076083;28;20133;-54
2022/07/10 06:39:34;;;;;;;19.60;8.70;;;19.20;99.60;;;;;;5057916;28;20029;-54
2022/07/10 06:42:03;;;;;;;22.45;9.60;;;19.30;99.00;;;;;;5075967;28;20028;-54
2022/07/10 06:44:29;;;;;;;25.33;10.65;;;19.40;99.10;;;;;;5076196;28;20485;-54
2022/07/10 06:49:41;;;;;;;19.30;10.30;;;19.60;96.70;;;;;;5075774;28;20087;-54
2022/07/10 06:52:07;;;;;;;21.00;10.38;;;19.60;96.50;;;;;;5075526;28;20063;-54
2022/07/10 06:54:34;;;;;;;18.67;9.40;;;19.80;97.00;;;;;;5075563;28;20074;-54
2022/07/10 06:57:00;;;;;;;24.52;10.15;;;20.00;95.10;;;;;;5075625;28;20222;-54
2022/07/10 06:59:27;;;;;;;20.00;9.98;;;20.20;95.20;;;;;;5075537;28;20040;-54
2022/07/10 07:01:53;;;;;;;17.55;8.13;;;20.40;93.60;;;;;;5075334;28;20493;-54
2022/07/10 07:04:18;;;;;;;18.48;7.55;;;20.60;91.50;;;;;;5075444;28;20028;-54
2022/07/10 07:06:45;;;;;;;11.95;6.43;;;20.80;91.00;;;;;;5075361;28;20032;-54
2022/07/10 07:09:11;;;;;;;13.02;6.85;;;20.90;89.90;;;;;;5075298;28;20055;-54
2022/07/10 07:11:38;;;;;;;12.65;5.97;;;21.10;86.10;;;;;;5075245;28;20029;-54
2022/07/10 07:14:03;;;;;;;11.63;5.43;;;21.30;85.90;;;;;;5075344;28;20279;-54
2022/07/10 07:16:42;;;;;;;10.63;4.88;;;21.40;84.60;;;;;;5075032;28;20318;-54
2022/07/10 07:19:11;;;;;;;8.88;4.70;;;21.60;85.00;;;;;;5091348;28;20127;-55
2022/07/10 07:24:22;;;;;;;9.88;4.28;;;21.80;79.50;;;;;;5095356;28;20028;-54
2022/07/10 07:26:48;;;;;;;9.32;3.95;;;21.90;80.10;;;;;;5095378;28;20022;-54
2022/07/10 07:29:15;;;;;;;8.15;3.90;;;21.80;79.60;;;;;;5095412;28;20055;-54
2022/07/10 07:31:42;;;;;;;8.23;3.95;;;22.10;84.70;;;;;;5095096;28;20070;-54
2022/07/10 07:34:08;;;;;;;7.22;3.30;;;22.30;79.40;;;;;;5095313;28;20028;-54
2022/07/10 07:36:34;;;;;;;5.68;2.72;;;22.60;77.50;;;;;;5095184;28;20020;-55
2022/07/10 07:39:00;;;;;;;4.72;3.08;;;22.70;75.20;;;;;;5095013;28;20431;-54
2022/07/10 07:41:25;;;;;;;6.00;2.47;;;22.70;73.30;;;;;;5094883;28;20239;-54
2022/07/10 07:43:52;;;;;;;3.25;2.28;;;23.00;74.10;;;;;;5093907;28;20026;-55
2022/07/10 07:46:19;;;;;;;3.42;2.20;;;23.40;73.60;;;;;;5094913;28;20492;-55
2022/07/10 07:48:45;;;;;;;5.03;2.03;;;23.60;72.00;;;;;;5095211;28;20028;-55
2022/07/10 07:51:11;;;;;;;6.45;2.13;;;23.80;66.40;;;;;;5094784;28;20375;-55
2022/07/10 07:53:38;;;;;;;1.85;1.30;;;24.10;67.90;;;;;;5094846;28;20036;-55
2022/07/10 07:56:04;;;;;;;3.17;1.55;;;24.20;64.60;;;;;;5094820;28;20028;-54
2022/07/10 07:58:30;;;;;;;2.55;1.23;;;24.10;64.00;;;;;;5094794;28;20478;-54
2022/07/10 08:00:56;;;;;;;2.10;1.08;;;24.30;62.40;;;;;;5094552;28;20043;-55
2022/07/10 08:03:22;;;;;;;4.90;1.73;;;24.20;60.30;;;;;;5094818;28;20119;-55
2022/07/10 08:05:49;;;;;;;2.13;1.20;;;24.60;61.60;;;;;;5094721;28;20107;-55
2022/07/10 08:08:15;;;;;;;1.92;1.00;;;24.30;62.60;;;;;;5094404;28;20024;-55
2022/07/10 08:10:41;;;;;;;1.50;1.00;;;24.90;59.90;;;;;;5094622;28;20165;-55
2022/07/10 08:13:07;;;;;;;1.98;1.13;;;25.20;59.90;;;;;;5094451;28;20047;-55
2022/07/10 08:15:34;;;;;;;1.08;0.98;;;25.20;59.20;;;;;;5094656;28;20028;-55
2022/07/10 08:18:03;;;;;;;3.42;1.20;;;25.30;56.90;;;;;;5094452;28;20051;-55
2022/07/10 08:20:30;;;;;;;1.73;1.05;;;25.20;58.80;;;;;;5094424;28;20500;-55
2022/07/10 08:22:57;;;;;;;2.83;0.90;;;25.40;57.90;;;;;;5094369;28;20024;-55
2022/07/10 08:25:23;;;;;;;3.67;1.20;;;25.60;57.50;;;;;;5094447;28;20377;-55
2022/07/10 08:27:49;;;;;;;2.65;1.05;;;26.00;56.30;;;;;;5094485;28;20027;-55
2022/07/10 08:30:15;;;;;;;2.22;1.50;;;25.50;54.90;;;;;;5076735;28;20028;-55
2022/07/10 08:32:41;;;;;;;3.83;1.30;;;25.00;55.30;;;;;;5094547;28;20394;-55
2022/07/10 08:35:09;;;;;;;2.15;1.25;;;24.70;56.50;;;;;;5094443;28;20409;-55
2022/07/10 08:37:43;;;;;;;3.47;1.00;;;24.30;56.10;;;;;;5094345;28;20020;-54
2022/07/10 08:40:11;;;;;;;1.67;1.02;;;24.20;57.60;;;;;;5094487;28;20104;-54
2022/07/10 08:42:37;;;;;;;1.55;0.82;;;24.60;58.90;;;;;;5092937;28;20024;-54
2022/07/10 08:45:03;;;;;;;2.08;0.85;;;24.90;57.00;;;;;;5094357;28;20347;-54
2022/07/10 08:47:31;;;;;;;1.92;0.90;;;24.70;55.50;;;;;;5094198;28;20619;-54
2022/07/10 08:49:57;;;;;;;2.13;1.40;;;24.60;56.40;;;;;;5094258;28;20032;-54
2022/07/10 08:52:30;;;;;;;1.40;1.00;;;24.70;56.50;;;;;;5094209;28;20028;-55
2022/07/10 08:54:56;;;;;;;1.73;1.05;;;25.00;55.20;;;;;;5076620;28;20028;-55
2022/07/10 08:57:24;;;;;;;6.35;2.60;;;25.50;56.60;;;;;;5097938;28;20028;-55
2022/07/10 08:59:50;;;;;;;4.20;2.53;;;25.10;54.60;;;;;;5098229;28;20028;-55
2022/07/10 09:02:16;;;;;;;2.55;1.10;;;25.90;57.00;;;;;;5098147;28;20024;-55
2022/07/10 09:04:42;;;;;;;2.25;1.42;;;26.20;55.10;;;;;;5098109;28;20031;-55
2022/07/10 09:07:08;;;;;;;1.50;1.00;;;26.80;54.80;;;;;;5097942;28;20078;-55
2022/07/10 09:09:52;;;;;;;2.00;1.15;;;27.00;54.10;;;;;;5097832;28;20566;-55
2022/07/10 09:12:19;;;;;;;2.13;1.00;;;27.40;53.10;;;;;;5098022;28;20020;-55
2022/07/10 09:14:45;;;;;;;1.58;1.20;;;27.40;51.10;;;;;;5098026;28;20035;-55
2022/07/10 09:17:11;;;;;;;2.17;0.88;;;27.70;51.10;;;;;;5097542;28;20024;-56
2022/07/10 09:19:37;;;;;;;1.15;0.80;;;27.80;51.40;;;;;;5097688;28;20111;-55
2022/07/10 09:22:11;;;;;;;4.40;1.00;;;27.80;49.40;;;;;;5097687;28;20449;-55
2022/07/10 09:24:44;;;;;;;3.08;0.80;;;28.00;48.00;;;;;;5097707;28;20032;-55
2022/07/10 09:27:14;;;;;;;3.47;1.17;;;27.50;48.80;;;;;;5097753;28;20528;-55
2022/07/10 09:29:46;;;;;;;2.58;0.98;;;26.00;49.20;;;;;;5079588;28;20489;-55
2022/07/10 09:32:12;;;;;;;3.22;1.10;;;26.40;51.90;;;;;;5097516;28;20047;-55
2022/07/10 09:37:42;;;;;;;4.10;1.07;;;26.70;49.90;;;;;;5055776;28;20736;-55
2022/07/10 09:40:08;;;;;;;3.03;0.90;;;26.50;50.10;;;;;;5097287;28;20032;-54
2022/07/10 09:42:36;;;;;;;1.65;0.80;;;26.70;48.90;;;;;;5097257;28;20633;-55
2022/07/10 09:45:17;;;;;;;1.05;0.85;;;27.10;48.30;;;;;;5097218;28;20024;-54
2022/07/10 09:47:55;;;;;;;3.03;0.60;;;27.70;48.20;;;;;;5097265;28;20024;-55
2022/07/10 09:50:27;;;;;;;0.73;0.63;;;27.30;46.70;;;;;;5097159;28;20020;-55
2022/07/10 09:52:58;;;;;;;2.42;1.52;;;27.30;46.70;;;;;;5096979;28;20024;-55
2022/07/10 09:55:26;;;;;;;1.60;0.80;;;27.20;46.80;;;;;;5096944;28;20020;-55
2022/07/10 09:57:55;;;;;;;2.78;1.10;;;28.00;45.80;;;;;;5097166;28;20031;-55
2022/07/10 10:00:28;;;;;;;3.30;1.00;;;28.00;45.30;;;;;;5096990;28;20024;-55
2022/07/10 10:03:04;;;;;;;5.00;1.67;;;28.10;45.00;;;;;;5097266;28;20099;-55
2022/07/10 10:05:53;;;;;;;3.10;1.00;;;28.10;44.60;;;;;;5096926;28;20036;-55
2022/07/10 10:08:27;;;;;;;3.22;0.90;;;27.90;44.90;;;;;;5096035;28;20024;-55
2022/07/10 10:10:57;;;;;;;2.22;0.90;;;27.40;46.10;;;;;;5096899;28;20028;-55
2022/07/10 10:13:28;;;;;;;0.93;0.85;;;28.30;43.90;;;;;;5096753;28;20031;-55
2022/07/10 10:15:55;;;;;;;2.00;0.77;;;28.50;42.90;;;;;;5096752;28;20054;-55
2022/07/10 10:18:23;;;;;;;0.90;0.75;;;28.70;42.50;;;;;;5096540;28;20054;-55
2022/07/10 10:20:50;;;;;;;1.75;1.30;;;28.80;43.00;;;;;;5096530;28;20466;-55
2022/07/10 10:23:20;;;;;;;1.92;1.00;;;28.30;43.60;;;;;;5096594;28;20462;-55
2022/07/10 10:25:47;;;;;;;1.17;0.90;;;28.40;43.60;;;;;;5096732;28;20028;-55
2022/07/10 10:28:15;;;;;;;2.45;1.10;;;28.60;43.60;;;;;;5096631;28;20342;-55
2022/07/10 10:30:46;;;;;;;5.00;1.38;;;28.20;45.70;;;;;;5096367;28;20028;-55
2022/07/10 10:33:34;;;;;;;1.20;0.90;;;28.00;43.50;;;;;;5096361;28;20036;-54
2022/07/10 10:36:02;;;;;;;1.77;1.20;;;28.10;45.50;;;;;;5096367;28;20182;-55
2022/07/10 10:38:54;;;;;;;6.57;1.10;;;28.50;45.00;;;;;;5096168;28;20084;-55
2022/07/10 10:41:27;;;;;;;4.00;1.40;;;28.80;44.70;;;;;;5095951;28;20031;-55
2022/07/10 10:44:16;;;;;;;6.90;1.42;;;28.40;44.50;;;;;;5096099;28;20025;-55
2022/07/10 10:46:56;;;;;;;3.38;1.33;;;28.80;45.00;;;;;;5103777;28;20090;-55
2022/07/10 10:49:27;;;;;;;3.67;1.00;;;29.30;43.60;;;;;;5096053;28;20032;-55
2022/07/10 10:51:55;;;;;;;;;;;29.50;43.00;;;;;;5096291;28;20024;-55
2022/07/10 10:54:21;;;;;;;5.55;1.33;;;29.60;42.60;;;;;;5096084;28;20019;-55
2022/07/10 10:57:17;;;;;;;1.77;0.85;;;29.60;40.30;;;;;;5096024;28;20025;-55
2022/07/10 10:59:51;;;;;;;0.93;0.82;;;30.50;39.50;;;;;;5095791;28;20031;-55
2022/07/10 11:02:22;;;;;;;2.28;1.42;;;30.80;39.30;;;;;;5095838;28;20478;-55
2022/07/10 11:04:49;;;;;;;1.58;1.20;;;31.20;40.40;;;;;;5095675;28;20081;-55
2022/07/10 11:08:10;;;;;;;1.48;0.85;;;30.40;36.70;;;;;;5095662;28;20134;-55
2022/07/10 11:10:39;;;;;;;4.63;1.98;;;30.10;37.90;;;;;;5072783;28;20116;-55
2022/07/10 11:13:13;;;;;;;3.13;1.65;;;30.30;38.80;;;;;;5072969;28;20097;-55
2022/07/10 11:15:44;;;;;;;1.63;0.93;;;30.10;38.80;;;;;;5072987;28;20040;-55
2022/07/10 11:18:12;;;;;;;1.85;1.05;;;28.60;37.80;;;;;;5072524;28;20052;-55
2022/07/10 11:20:53;;;;;;;2.75;1.25;;;28.90;39.40;;;;;;5072790;28;20040;-55
2022/07/10 11:23:50;;;;;;;2.22;0.75;;;29.80;39.80;;;;;;5072731;28;20035;-55
2022/07/10 11:26:39;;;;;;;1.30;0.80;;;30.50;37.30;;;;;;5072554;28;20068;-55
2022/07/10 11:29:06;;;;;;;3.67;1.13;;;30.70;38.00;;;;;;5072589;28;20071;-55
2022/07/10 11:31:44;;;;;;;1.58;1.00;;;30.30;37.90;;;;;;5072427;28;20040;-55
2022/07/10 11:34:10;;;;;;;2.42;1.00;;;29.70;39.00;;;;;;5072569;28;20047;-55
2022/07/10 11:36:38;;;;;;;0.95;0.70;;;28.50;41.20;;;;;;5072434;28;20108;-55
2022/07/10 11:39:07;;;;;;;2.15;1.38;;;29.10;39.00;;;;;;5072373;28;20048;-55
2022/07/10 11:41:34;;;;;;;2.75;1.23;;;29.30;39.70;;;;;;5072435;28;20475;-55
2022/07/10 11:44:02;;;;;;;2.08;1.38;;;29.30;39.40;;;;;;5078091;28;20490;-55
2022/07/10 11:46:35;;;;;;;2.05;0.90;;;28.90;40.20;;;;;;5095013;28;20028;-55
2022/07/10 11:49:06;;;;;;;4.90;1.00;;;29.10;39.90;;;;;;5095033;28;20085;-55
2022/07/10 11:51:36;;;;;;;1.42;1.17;;;29.30;39.90;;;;;;5094992;28;20439;-55
2022/07/10 11:54:06;;;;;;;2.65;0.98;;;28.60;40.20;;;;;;5094843;28;20024;-55
2022/07/10 11:56:34;;;;;;;1.20;0.93;;;28.70;41.00;;;;;;5094804;28;20035;-55
2022/07/10 11:59:05;;;;;;;3.55;1.10;;;28.70;39.60;;;;;;5094933;28;20038;-54
2022/07/10 12:01:33;;;;;;;2.50;0.90;;;29.00;42.40;;;;;;5094677;28;20554;-55
2022/07/10 12:04:02;;;;;;;2.97;1.40;;;29.20;41.10;;;;;;5094783;28;20028;-55
2022/07/10 12:06:29;;;;;;;0.77;0.77;;;29.10;40.40;;;;;;5094860;28;20055;-54
2022/07/10 12:08:56;;;;;;;3.25;1.00;;;29.20;40.10;;;;;;5076493;28;20417;-54
2022/07/10 12:11:22;;;;;;;1.45;0.65;;;29.00;38.40;;;;;;5094937;28;20039;-55
2022/07/10 12:13:54;;;;;;;0.65;0.65;;;29.00;41.20;;;;;;5094799;28;20496;-54
2022/07/10 12:16:21;;;;;;;1.00;0.80;;;29.30;40.70;;;;;;5094591;28;20036;-54
2022/07/10 12:18:48;;;;;;;1.27;1.00;;;29.50;39.40;;;;;;5094485;28;20090;-54
2022/07/10 12:21:15;;;;;;;1.42;0.73;;;29.80;39.60;;;;;;5094390;28;20040;-55
2022/07/10 12:23:43;;;;;;;2.80;1.08;;;30.00;38.90;;;;;;5094504;28;20118;-55
2022/07/10 12:26:11;;;;;;;2.22;1.05;;;29.50;40.00;;;;;;5094504;28;20127;-55
2022/07/10 12:28:57;;;;;;;1.20;0.88;;;30.00;39.20;;;;;;5094663;28;20027;-55
2022/07/10 12:31:24;;;;;;;1.65;0.70;;;30.00;37.80;;;;;;5097299;28;20054;-55
2022/07/10 12:33:57;;;;;;;1.55;0.77;;;29.70;37.30;;;;;;5098590;28;20023;-55
2022/07/10 12:36:25;;;;;;;1.42;0.73;;;29.90;38.70;;;;;;5098553;28;20028;-55
2022/07/10 12:38:58;;;;;;;5.38;1.17;;;29.90;39.80;;;;;;5098519;28;20028;-55
2022/07/10 12:41:25;;;;;;;1.25;0.90;;;30.00;38.50;;;;;;5098409;28;20107;-55
2022/07/10 12:43:52;;;;;;;1.40;1.00;;;29.90;39.00;;;;;;5098480;28;20321;-55
2022/07/10 12:46:20;;;;;;;3.13;1.50;;;29.70;39.20;;;;;;5098624;28;20073;-55
2022/07/10 12:49:06;;;;;;;5.22;1.45;;;29.60;39.00;;;;;;5098495;28;20031;-55
2022/07/10 12:51:49;;;;;;;0.90;0.73;;;29.60;39.10;;;;;;5098316;28;20096;-55
2022/07/10 12:54:38;;;;;;;0.77;0.65;;;29.70;40.20;;;;;;5098316;28;20028;-55
2022/07/10 12:57:05;;;;;;;1.80;0.90;;;29.70;38.40;;;;;;5098374;28;20024;-54
2022/07/10 12:59:35;;;;;;;2.55;1.00;;;29.70;38.20;;;;;;5098136;28;20032;-54
2022/07/10 13:02:20;;;;;;;;;;;29.60;40.70;;;;;;5098663;28;20126;-54
2022/07/10 13:04:53;;;;;;;1.92;0.80;;;29.70;39.00;;;;;;5098112;28;19958;-55